Time;durP1;ratioP1;P1;durP2;ratioP2;P2;SDS_P1;SDS_P2;PMS_P1;PMS_P2;Temp;Humidity;BMP_temperature;BMP_pressure;BME280_temperature;BME280_humidity;BME280_pressure;Samples;Min_cycle;Max_cycle;Signal;HPM_P1;HPM_P2
2022/01/15 00:02:15;;;;;;;17.87;10.90;;;;;;;;;;5056014;28;20449;-68
2022/01/15 00:04:41;;;;;;;17.67;9.70;;;;;;;;;;5056130;28;20417;-68
2022/01/15 00:07:07;;;;;;;16.43;9.93;;;;;;;;;;5056233;28;20914;-68
2022/01/15 00:09:33;;;;;;;17.20;11.37;;;;;;;;;;5056259;28;20394;-68
2022/01/15 00:12:00;;;;;;;21.27;10.83;;;;;;;;;;5055581;28;20414;-68
2022/01/15 00:14:31;;;;;;;13.33;10.07;;;;;;;;;;5055543;28;20480;-68
2022/01/15 00:17:06;;;;;;;14.83;9.93;;;;;;;;;;5055939;28;20948;-68
2022/01/15 00:19:41;;;;;;;16.43;10.60;;;;;;;;;;5056244;28;20874;-68
2022/01/15 00:22:08;;;;;;;13.47;9.97;;;;;;;;;;5056075;28;20446;-68
2022/01/15 00:24:34;;;;;;;16.27;11.43;;;;;;;;;;5055876;28;20437;-68
2022/01/15 00:27:00;;;;;;;15.63;10.60;;;;;;;;;;5055712;28;20394;-68
2022/01/15 00:29:26;;;;;;;15.63;11.50;;;;;;;;;;5055804;28;20402;-68
2022/01/15 00:31:52;;;;;;;19.23;10.70;;;;;;;;;;5055409;28;20417;-68
2022/01/15 00:34:18;;;;;;;14.90;9.83;;;;;;;;;;5055371;28;20433;-68
2022/01/15 00:36:44;;;;;;;14.90;10.77;;;;;;;;;;5055566;28;20512;-71
2022/01/15 00:39:10;;;;;;;13.03;9.20;;;;;;;;;;5055415;28;20452;-68
2022/01/15 00:41:36;;;;;;;15.07;11.20;;;;;;;;;;5055455;28;20961;-68
2022/01/15 00:44:02;;;;;;;14.80;10.20;;;;;;;;;;5055551;28;20420;-68
2022/01/15 00:46:28;;;;;;;12.23;9.77;;;;;;;;;;5055136;28;20401;-68
2022/01/15 00:48:54;;;;;;;14.77;10.73;;;;;;;;;;5055473;28;20404;-68
2022/01/15 00:51:20;;;;;;;13.10;9.67;;;;;;;;;;5055222;28;20406;-68
2022/01/15 00:53:47;;;;;;;13.17;10.20;;;;;;;;;;5054984;28;20495;-68
2022/01/15 00:56:14;;;;;;;14.53;8.90;;;;;;;;;;5055378;28;20467;-68
2022/01/15 00:58:40;;;;;;;12.33;8.90;;;;;;;;;;5054783;28;20811;-68
2022/01/15 01:01:06;;;;;;;15.27;9.10;;;;;;;;;;5054979;28;20453;-68
2022/01/15 01:03:32;;;;;;;15.23;9.70;;;;;;;;;;5054944;28;20402;-68
2022/01/15 01:05:58;;;;;;;14.37;9.40;;;;;;;;;;5054713;28;20413;-68
2022/01/15 01:08:24;;;;;;;15.37;9.73;;;;;;;;;;5055016;28;20397;-68
2022/01/15 01:22:51;;;;;;;15.70;9.90;;;;;;;;;;5054625;28;20877;-68
2022/01/15 01:24:19;;;;;;;16.70;8.73;;;;;;;;;;5050576;28;21001;-69
2022/01/15 01:26:53;;;;;;;13.50;9.17;;;;;;;;;;5054767;28;20494;-69
2022/01/15 01:34:22;;;;;;;13.33;9.70;;;;;;;;;;5054505;28;20759;-69
2022/01/15 01:37:12;;;;;;;17.10;10.50;;;;;;;;;;5054283;28;20452;-69
2022/01/15 01:44:40;;;;;;;13.33;8.87;;;;;;;;;;5054200;28;20410;-69
2022/01/15 01:47:16;;;;;;;9.97;7.87;;;;;;;;;;5054189;28;20378;-69
2022/01/15 01:49:42;;;;;;;13.53;9.00;;;;;;;;;;5054511;28;20393;-69
2022/01/15 01:52:08;;;;;;;11.03;8.43;;;;;;;;;;5054301;28;20444;-69
2022/01/15 01:54:35;;;;;;;12.90;8.57;;;;;;;;;;5054088;28;20443;-69
2022/01/15 01:57:01;;;;;;;13.20;8.77;;;;;;;;;;5053866;28;20402;-69
2022/01/15 01:59:27;;;;;;;13.90;8.90;;;;;;;;;;5053851;28;20402;-69
2022/01/15 02:01:53;;;;;;;12.70;9.17;;;;;;;;;;5053695;28;20449;-69
2022/01/15 02:04:20;;;;;;;14.47;9.07;;;;;;;;;;5054388;28;20421;-69
2022/01/15 02:06:46;;;;;;;12.73;9.70;;;;;;;;;;5054241;28;20809;-69
2022/01/15 02:09:12;;;;;;;11.60;8.10;;;;;;;;;;5053580;28;20398;-69
2022/01/15 02:11:39;;;;;;;11.43;8.70;;;;;;;;;;5053573;28;20456;-69
2022/01/15 02:14:05;;;;;;;13.10;8.60;;;;;;;;;;5053497;28;20428;-69
2022/01/15 02:16:31;;;;;;;11.77;9.47;;;;;;;;;;5052197;28;20472;-69
2022/01/15 02:18:57;;;;;;;10.03;7.90;;;;;;;;;;5053923;28;20413;-69
2022/01/15 02:23:53;;;;;;;14.20;9.07;;;;;;;;;;5053712;28;20942;-69
2022/01/15 02:26:19;;;;;;;10.40;7.80;;;;;;;;;;5053904;28;20382;-68
2022/01/15 02:28:46;;;;;;;14.00;8.80;;;;;;;;;;5053455;28;20398;-67
2022/01/15 02:31:14;;;;;;;12.60;8.90;;;;;;;;;;5052171;28;20906;-67
2022/01/15 02:33:41;;;;;;;11.63;8.13;;;;;;;;;;5053206;28;20993;-67
2022/01/15 02:36:10;;;;;;;10.53;9.00;;;;;;;;;;5053468;28;20492;-68
2022/01/15 02:38:37;;;;;;;12.50;9.20;;;;;;;;;;5053441;28;20743;-71
2022/01/15 02:41:03;;;;;;;10.40;9.00;;;;;;;;;;5053572;28;20497;-68
2022/01/15 02:43:32;;;;;;;11.97;8.60;;;;;;;;;;5053246;28;20393;-68
2022/01/15 02:46:07;;;;;;;11.17;8.50;;;;;;;;;;5049192;28;20516;-68
2022/01/15 02:48:33;;;;;;;12.53;9.20;;;;;;;;;;5042976;28;20394;-68
2022/01/15 02:51:00;;;;;;;12.67;9.17;;;;;;;;;;5053472;28;20489;-68
2022/01/15 02:53:26;;;;;;;12.87;9.10;;;;;;;;;;5055707;28;20437;-68
2022/01/15 02:55:53;;;;;;;11.80;8.70;;;;;;;;;;5057573;28;20780;-68
2022/01/15 02:58:20;;;;;;;12.00;8.10;;;;;;;;;;5057192;28;20410;-68
2022/01/15 03:00:47;;;;;;;11.30;8.03;;;;;;;;;;5057176;28;20451;-67
2022/01/15 03:03:13;;;;;;;12.37;9.50;;;;;;;;;;5056804;28;20936;-67
2022/01/15 03:05:39;;;;;;;14.60;8.60;;;;;;;;;;5057333;28;20474;-67
2022/01/15 03:08:05;;;;;;;12.07;9.40;;;;;;;;;;5057170;28;20390;-67
2022/01/15 03:10:31;;;;;;;11.90;9.00;;;;;;;;;;5057047;28;20401;-67
2022/01/15 03:12:58;;;;;;;14.97;9.90;;;;;;;;;;5057129;28;20866;-67
2022/01/15 03:15:25;;;;;;;15.70;9.67;;;;;;;;;;5058200;28;20448;-67
2022/01/15 03:17:51;;;;;;;13.00;9.50;;;;;;;;;;5057249;28;20408;-67
2022/01/15 03:20:18;;;;;;;14.43;9.40;;;;;;;;;;5056736;28;20401;-67
2022/01/15 03:22:44;;;;;;;14.17;9.20;;;;;;;;;;5055234;28;20964;-67
2022/01/15 03:25:12;;;;;;;14.33;9.67;;;;;;;;;;5056420;28;20449;-67
2022/01/15 03:27:38;;;;;;;12.40;9.30;;;;;;;;;;5056695;28;20389;-67
2022/01/15 03:30:08;;;;;;;11.83;9.93;;;;;;;;;;5056676;28;20397;-67
2022/01/15 03:32:34;;;;;;;13.20;9.47;;;;;;;;;;5055183;28;20452;-67
2022/01/15 03:35:00;;;;;;;10.20;8.50;;;;;;;;;;5056916;28;20428;-67
2022/01/15 03:37:26;;;;;;;15.97;10.07;;;;;;;;;;5056499;28;20390;-67
2022/01/15 03:39:52;;;;;;;12.90;8.87;;;;;;;;;;5056614;28;20405;-67
2022/01/15 03:42:18;;;;;;;11.20;8.33;;;;;;;;;;5056215;28;20441;-67
2022/01/15 03:44:46;;;;;;;12.37;8.83;;;;;;;;;;5054771;28;20524;-67
2022/01/15 03:47:13;;;;;;;12.80;9.23;;;;;;;;;;5056359;28;20432;-67
2022/01/15 03:49:39;;;;;;;10.23;7.67;;;;;;;;;;5056179;28;20532;-67
2022/01/15 03:52:06;;;;;;;13.17;9.30;;;;;;;;;;5056148;28;20402;-67
2022/01/15 03:54:32;;;;;;;11.63;10.03;;;;;;;;;;5056131;28;20835;-68
2022/01/15 03:56:58;;;;;;;11.67;8.90;;;;;;;;;;5056013;28;20410;-68
2022/01/15 03:59:24;;;;;;;12.83;8.23;;;;;;;;;;5056028;28;20471;-68
2022/01/15 04:01:51;;;;;;;12.70;8.87;;;;;;;;;;5055963;28;20480;-68
2022/01/15 04:04:17;;;;;;;16.17;8.90;;;;;;;;;;5055731;28;20417;-68
2022/01/15 04:06:43;;;;;;;14.53;8.50;;;;;;;;;;5055683;28;20405;-68
2022/01/15 04:09:10;;;;;;;14.50;8.77;;;;;;;;;;5056000;28;20424;-68
2022/01/15 04:11:36;;;;;;;15.00;9.97;;;;;;;;;;5055647;28;20451;-68
2022/01/15 04:14:03;;;;;;;11.87;8.50;;;;;;;;;;5055676;28;20432;-68
2022/01/15 04:16:29;;;;;;;10.10;8.33;;;;;;;;;;5055949;28;20811;-68
2022/01/15 04:18:56;;;;;;;13.20;8.60;;;;;;;;;;5053176;28;20414;-68
2022/01/15 04:21:22;;;;;;;12.63;8.37;;;;;;;;;;5055307;28;20445;-68
2022/01/15 04:23:48;;;;;;;14.77;8.80;;;;;;;;;;5054053;28;20488;-68
2022/01/15 04:26:15;;;;;;;14.33;8.77;;;;;;;;;;5055251;28;20399;-68
2022/01/15 04:28:41;;;;;;;12.37;8.50;;;;;;;;;;5055470;28;20402;-68
2022/01/15 04:31:08;;;;;;;11.90;8.80;;;;;;;;;;5055763;28;20484;-68
2022/01/15 04:33:35;;;;;;;11.93;8.50;;;;;;;;;;5055303;28;20402;-68
2022/01/15 04:36:02;;;;;;;14.23;9.17;;;;;;;;;;5055349;28;20406;-68
2022/01/15 04:38:30;;;;;;;10.80;9.07;;;;;;;;;;5055572;28;20488;-68
2022/01/15 04:40:56;;;;;;;13.30;8.50;;;;;;;;;;5055307;28;20394;-68
2022/01/15 04:43:22;;;;;;;15.10;9.90;;;;;;;;;;5055157;28;20394;-68
2022/01/15 04:45:48;;;;;;;12.53;9.40;;;;;;;;;;5055116;28;20429;-68
2022/01/15 04:48:14;;;;;;;10.33;8.37;;;;;;;;;;5054975;28;20792;-68
2022/01/15 04:50:41;;;;;;;14.37;9.07;;;;;;;;;;5055136;28;20402;-68
2022/01/15 04:53:08;;;;;;;13.50;9.23;;;;;;;;;;5054905;28;20398;-68
2022/01/15 04:55:35;;;;;;;11.33;8.93;;;;;;;;;;5054723;28;20414;-68
2022/01/15 04:58:01;;;;;;;15.73;9.23;;;;;;;;;;5045452;28;20458;-68
2022/01/15 05:00:27;;;;;;;13.43;8.63;;;;;;;;;;5034715;28;20486;-68
2022/01/15 05:02:53;;;;;;;14.13;8.37;;;;;;;;;;5045136;28;20460;-68
2022/01/15 05:05:19;;;;;;;16.23;10.07;;;;;;;;;;5054804;28;20752;-68
2022/01/15 05:07:45;;;;;;;13.10;8.30;;;;;;;;;;5055044;28;20456;-68
2022/01/15 05:10:16;;;;;;;9.97;8.00;;;;;;;;;;5054828;28;20480;-68
2022/01/15 05:12:44;;;;;;;13.17;9.13;;;;;;;;;;5054978;28;20750;-68
2022/01/15 05:15:12;;;;;;;10.80;8.80;;;;;;;;;;5053872;28;20455;-68
2022/01/15 05:17:38;;;;;;;14.57;9.00;;;;;;;;;;5054592;28;20477;-68
2022/01/15 05:20:05;;;;;;;17.87;9.47;;;;;;;;;;5054793;28;20405;-68
2022/01/15 05:22:32;;;;;;;13.30;9.77;;;;;;;;;;5046477;28;20451;-68
2022/01/15 05:24:58;;;;;;;14.33;10.30;;;;;;;;;;5054109;28;21023;-68
2022/01/15 05:27:24;;;;;;;16.93;8.73;;;;;;;;;;5054370;28;20517;-68
2022/01/15 05:29:50;;;;;;;14.70;8.60;;;;;;;;;;5054289;28;20397;-68
2022/01/15 05:32:18;;;;;;;12.43;9.20;;;;;;;;;;5054445;28;20406;-69
2022/01/15 05:34:45;;;;;;;12.47;9.33;;;;;;;;;;5054169;28;20949;-69
2022/01/15 05:37:11;;;;;;;15.67;9.23;;;;;;;;;;5054601;28;20808;-69
2022/01/15 05:39:37;;;;;;;10.30;8.67;;;;;;;;;;5054235;28;20456;-69
2022/01/15 05:42:04;;;;;;;11.70;8.70;;;;;;;;;;5054128;28;20965;-69
2022/01/15 05:44:30;;;;;;;16.80;10.77;;;;;;;;;;5054035;28;20898;-69
2022/01/15 05:46:56;;;;;;;12.03;9.00;;;;;;;;;;5054015;28;20928;-69
2022/01/15 05:49:22;;;;;;;13.90;9.03;;;;;;;;;;5054081;28;20405;-69
2022/01/15 05:51:48;;;;;;;13.30;9.00;;;;;;;;;;5053835;28;20410;-69
2022/01/15 05:54:14;;;;;;;16.60;8.60;;;;;;;;;;5053869;28;20459;-69
2022/01/15 05:56:41;;;;;;;12.10;8.90;;;;;;;;;;5054079;28;20405;-69
2022/01/15 05:59:07;;;;;;;11.77;7.97;;;;;;;;;;5054391;28;20397;-69
2022/01/15 06:01:33;;;;;;;12.27;9.17;;;;;;;;;;5054116;28;20449;-69
2022/01/15 06:04:01;;;;;;;11.93;8.27;;;;;;;;;;5052471;28;20977;-69
2022/01/15 06:06:27;;;;;;;10.60;7.97;;;;;;;;;;5053919;28;20882;-69
2022/01/15 06:08:53;;;;;;;17.10;10.60;;;;;;;;;;5054320;28;20397;-69
2022/01/15 06:11:19;;;;;;;11.47;8.03;;;;;;;;;;5055775;28;20398;-69
2022/01/15 06:13:46;;;;;;;15.33;9.60;;;;;;;;;;5054487;28;20978;-69
2022/01/15 06:16:12;;;;;;;11.50;8.03;;;;;;;;;;5054086;28;20409;-69
2022/01/15 06:18:38;;;;;;;10.50;8.43;;;;;;;;;;5053664;28;20815;-69
2022/01/15 06:21:04;;;;;;;20.97;10.27;;;;;;;;;;5053809;28;21064;-69
2022/01/15 06:23:30;;;;;;;12.40;8.90;;;;;;;;;;5053230;28;20910;-69
2022/01/15 06:25:56;;;;;;;13.40;9.33;;;;;;;;;;5053366;28;20413;-69
2022/01/15 06:28:22;;;;;;;16.10;9.50;;;;;;;;;;5053278;28;20401;-71
2022/01/15 06:30:48;;;;;;;16.60;9.60;;;;;;;;;;5053351;28;20433;-69
2022/01/15 06:33:14;;;;;;;12.67;9.77;;;;;;;;;;5053176;28;20408;-67
2022/01/15 06:35:41;;;;;;;12.17;9.10;;;;;;;;;;5053427;28;20437;-67
2022/01/15 06:38:07;;;;;;;13.20;9.43;;;;;;;;;;5053169;28;20401;-67
2022/01/15 06:40:33;;;;;;;11.60;9.13;;;;;;;;;;5053140;28;20493;-67
2022/01/15 06:43:00;;;;;;;13.20;8.30;;;;;;;;;;5052970;28;20506;-67
2022/01/15 06:45:27;;;;;;;11.80;9.07;;;;;;;;;;5053248;28;20537;-67
2022/01/15 06:47:53;;;;;;;14.07;9.73;;;;;;;;;;5053361;28;20409;-67
2022/01/15 06:50:19;;;;;;;13.17;8.80;;;;;;;;;;5053183;28;20849;-67
2022/01/15 06:52:45;;;;;;;12.43;9.93;;;;;;;;;;5052952;28;20971;-67
2022/01/15 06:55:12;;;;;;;11.87;9.43;;;;;;;;;;5053017;28;20456;-67
2022/01/15 06:57:38;;;;;;;16.30;9.07;;;;;;;;;;5053269;28;20440;-67
2022/01/15 07:00:05;;;;;;;14.07;9.00;;;;;;;;;;5053064;28;20831;-68
2022/01/15 07:02:32;;;;;;;11.27;9.00;;;;;;;;;;5052967;28;20981;-68
2022/01/15 07:04:58;;;;;;;13.00;9.63;;;;;;;;;;5052954;28;20417;-68
2022/01/15 07:07:24;;;;;;;11.70;9.20;;;;;;;;;;5052980;28;20402;-68
2022/01/15 07:09:50;;;;;;;14.63;9.90;;;;;;;;;;5053071;28;20913;-68
2022/01/15 07:12:17;;;;;;;14.80;10.30;;;;;;;;;;5052763;28;21012;-68
2022/01/15 07:14:43;;;;;;;17.47;12.93;;;;;;;;;;5053183;28;20788;-68
2022/01/15 07:17:10;;;;;;;18.57;13.17;;;;;;;;;;5053263;28;20943;-68
2022/01/15 07:19:37;;;;;;;18.93;11.63;;;;;;;;;;5051534;28;20418;-68
2022/01/15 07:22:03;;;;;;;21.97;12.53;;;;;;;;;;5053105;28;20453;-69
2022/01/15 07:24:29;;;;;;;21.07;13.53;;;;;;;;;;5052770;28;20445;-68
2022/01/15 07:26:55;;;;;;;22.00;13.20;;;;;;;;;;5052815;28;20398;-68
2022/01/15 07:29:24;;;;;;;20.07;12.23;;;;;;;;;;5053104;28;20460;-68
2022/01/15 07:31:51;;;;;;;15.97;12.10;;;;;;;;;;5052685;28;20401;-68
2022/01/15 07:34:17;;;;;;;21.70;14.73;;;;;;;;;;5052615;28;20428;-68
2022/01/15 07:36:43;;;;;;;17.73;12.90;;;;;;;;;;5052886;28;20405;-68
2022/01/15 07:39:09;;;;;;;19.33;12.20;;;;;;;;;;5054390;28;20489;-69
2022/01/15 07:41:36;;;;;;;19.80;13.33;;;;;;;;;;5056274;28;20477;-68
2022/01/15 07:44:02;;;;;;;25.47;14.37;;;;;;;;;;5056230;28;20433;-68
2022/01/15 07:46:28;;;;;;;22.13;13.73;;;;;;;;;;5056586;28;20447;-69
2022/01/15 07:48:54;;;;;;;19.70;13.57;;;;;;;;;;5056189;28;20394;-68
2022/01/15 07:51:20;;;;;;;20.77;12.20;;;;;;;;;;5056365;28;20770;-68
2022/01/15 07:53:47;;;;;;;20.70;12.57;;;;;;;;;;5056289;28;20512;-69
2022/01/15 07:56:13;;;;;;;17.30;12.43;;;;;;;;;;5056169;28;20404;-68
2022/01/15 07:58:39;;;;;;;24.40;13.67;;;;;;;;;;5056239;28;20766;-68
2022/01/15 08:01:05;;;;;;;18.27;13.00;;;;;;;;;;5056192;28;20406;-69
2022/01/15 08:03:32;;;;;;;19.33;12.20;;;;;;;;;;5056431;28;20402;-69
2022/01/15 08:05:58;;;;;;;21.70;13.80;;;;;;;;;;5056341;28;20496;-69
2022/01/15 08:08:24;;;;;;;18.00;13.37;;;;;;;;;;5056027;28;20833;-69
2022/01/15 08:10:50;;;;;;;17.50;12.80;;;;;;;;;;5056123;28;20458;-69
2022/01/15 08:13:16;;;;;;;17.67;12.30;;;;;;;;;;5055851;28;20493;-69
2022/01/15 08:15:42;;;;;;;19.00;11.80;;;;;;;;;;5055759;28;20942;-69
2022/01/15 08:18:09;;;;;;;16.90;12.20;;;;;;;;;;5055904;28;20813;-69
2022/01/15 08:20:35;;;;;;;18.20;12.27;;;;;;;;;;5055775;28;20771;-69
2022/01/15 08:23:01;;;;;;;15.10;12.70;;;;;;;;;;5055676;28;20446;-69
2022/01/15 08:25:27;;;;;;;17.37;11.67;;;;;;;;;;5055863;28;20525;-69
2022/01/15 08:27:53;;;;;;;16.63;12.23;;;;;;;;;;5057413;28;20436;-69
2022/01/15 08:30:20;;;;;;;23.97;13.07;;;;;;;;;;5057416;28;20409;-68
2022/01/15 08:32:47;;;;;;;16.33;12.43;;;;;;;;;;5057114;28;20440;-69
2022/01/15 08:35:13;;;;;;;21.30;13.20;;;;;;;;;;5055416;28;20947;-69
2022/01/15 08:37:40;;;;;;;17.33;12.97;;;;;;;;;;5055701;28;20434;-68
2022/01/15 08:40:07;;;;;;;20.13;12.87;;;;;;;;;;5055471;28;20406;-69
2022/01/15 08:42:35;;;;;;;16.37;12.67;;;;;;;;;;5055535;28;20458;-69
2022/01/15 08:45:01;;;;;;;19.10;13.07;;;;;;;;;;5055253;28;20426;-68
2022/01/15 08:47:27;;;;;;;17.40;12.17;;;;;;;;;;5055208;28;20402;-69
2022/01/15 08:49:53;;;;;;;18.57;13.40;;;;;;;;;;5054319;28;20405;-69
2022/01/15 08:52:20;;;;;;;27.63;12.90;;;;;;;;;;5054857;28;20408;-69
2022/01/15 08:54:46;;;;;;;19.70;14.07;;;;;;;;;;5055158;28;20484;-69
2022/01/15 08:57:12;;;;;;;20.83;12.53;;;;;;;;;;5055033;28;20836;-69
2022/01/15 08:59:38;;;;;;;17.57;13.50;;;;;;;;;;5054977;28;20410;-69
2022/01/15 09:02:04;;;;;;;17.93;13.17;;;;;;;;;;5055108;28;20456;-69
2022/01/15 09:04:30;;;;;;;18.47;13.33;;;;;;;;;;5055576;28;20457;-69
2022/01/15 09:06:56;;;;;;;19.63;13.30;;;;;;;;;;5055235;28;20413;-69
2022/01/15 09:09:22;;;;;;;16.30;12.70;;;;;;;;;;5054932;28;20532;-69
2022/01/15 09:11:48;;;;;;;18.07;13.70;;;;;;;;;;5054856;28;20398;-69
2022/01/15 09:14:14;;;;;;;21.00;15.47;;;;;;;;;;5053389;28;20438;-69
2022/01/15 09:16:40;;;;;;;19.93;14.70;;;;;;;;;;5054567;28;20463;-69
2022/01/15 09:19:07;;;;;;;19.77;15.07;;;;;;;;;;5054793;28;20778;-69
2022/01/15 09:21:33;;;;;;;20.20;13.67;;;;;;;;;;5054432;28;20453;-68
2022/01/15 09:23:59;;;;;;;19.37;14.57;;;;;;;;;;5054221;28;20437;-69
2022/01/15 09:26:47;;;;;;;21.37;14.00;;;;;;;;;;5054814;28;20406;-69
2022/01/15 09:31:57;;;;;;;20.13;14.60;;;;;;;;;;5054386;28;20877;-69
2022/01/15 09:34:23;;;;;;;20.10;14.43;;;;;;;;;;5054541;28;20426;-69
2022/01/15 09:36:49;;;;;;;18.10;13.43;;;;;;;;;;5054773;28;20408;-69
2022/01/15 09:39:15;;;;;;;22.20;14.40;;;;;;;;;;5054122;28;20410;-69
2022/01/15 09:41:46;;;;;;;19.43;14.60;;;;;;;;;;5054049;28;20503;-69
2022/01/15 09:44:13;;;;;;;20.60;15.57;;;;;;;;;;5054613;28;20428;-69
2022/01/15 09:46:39;;;;;;;20.40;14.73;;;;;;;;;;5054383;28;20398;-69
2022/01/15 09:49:06;;;;;;;20.30;13.30;;;;;;;;;;5054070;28;20414;-69
2022/01/15 09:51:32;;;;;;;22.40;14.10;;;;;;;;;;5052856;28;20444;-69
2022/01/15 09:53:58;;;;;;;21.17;14.30;;;;;;;;;;5054039;28;20449;-69
2022/01/15 09:56:24;;;;;;;18.23;13.80;;;;;;;;;;5054164;28;20410;-69
2022/01/15 09:58:52;;;;;;;17.87;13.40;;;;;;;;;;5054225;28;20437;-69
2022/01/15 10:01:18;;;;;;;20.60;14.77;;;;;;;;;;5053540;28;20536;-69
2022/01/15 10:03:44;;;;;;;21.50;16.10;;;;;;;;;;5054134;28;20420;-69
2022/01/15 10:06:10;;;;;;;22.77;14.40;;;;;;;;;;5054034;28;20541;-69
2022/01/15 10:08:37;;;;;;;18.90;14.33;;;;;;;;;;5054045;28;20907;-69
2022/01/15 10:11:11;;;;;;;17.83;12.77;;;;;;;;;;5053868;28;20893;-69
2022/01/15 10:13:44;;;;;;;20.47;15.33;;;;;;;;;;5053729;28;20387;-69
2022/01/15 10:16:10;;;;;;;18.10;14.40;;;;;;;;;;5053616;28;20390;-69
2022/01/15 10:18:42;;;;;;;23.63;16.10;;;;;;;;;;5053412;28;20973;-72
2022/01/15 10:21:23;;;;;;;22.20;15.87;;;;;;;;;;5053859;28;20386;-69
2022/01/15 10:23:53;;;;;;;24.93;16.63;;;;;;;;;;5053344;28;20441;-69
2022/01/15 10:26:20;;;;;;;26.07;17.13;;;;;;;;;;5053271;28;20390;-69
2022/01/15 10:28:53;;;;;;;22.20;16.40;;;;;;;;;;5053638;28;20426;-69
2022/01/15 10:31:30;;;;;;;22.70;15.83;;;;;;;;;;5053672;28;20429;-69
2022/01/15 10:33:56;;;;;;;22.57;15.83;;;;;;;;;;5053434;28;20475;-69
2022/01/15 10:36:45;;;;;;;27.37;17.77;;;;;;;;;;5051023;28;20418;-68
2022/01/15 10:39:15;;;;;;;23.53;16.90;;;;;;;;;;5054619;28;20497;-68
2022/01/15 10:41:41;;;;;;;21.47;16.87;;;;;;;;;;5051855;28;20456;-68
2022/01/15 10:44:26;;;;;;;23.40;16.27;;;;;;;;;;5059521;28;20428;-68
2022/01/15 10:47:00;;;;;;;27.20;17.73;;;;;;;;;;5057574;28;20793;-69
2022/01/15 10:49:26;;;;;;;29.67;19.00;;;;;;;;;;5053181;28;20412;-68
2022/01/15 10:52:11;;;;;;;34.73;19.67;;;;;;;;;;5052563;28;20918;-68
2022/01/15 10:54:57;;;;;;;34.00;22.30;;;;;;;;;;5033323;28;20808;-68
2022/01/15 10:57:33;;;;;;;31.17;18.20;;;;;;;;;;5053617;28;20491;-69
2022/01/15 11:00:12;;;;;;;30.23;18.50;;;;;;;;;;5073389;28;20476;-68
2022/01/15 11:02:39;;;;;;;25.13;17.63;;;;;;;;;;5067349;28;20467;-69
2022/01/15 11:05:19;;;;;;;34.73;20.97;;;;;;;;;;5061815;28;20432;-69
2022/01/15 11:07:45;;;;;;;29.70;18.40;;;;;;;;;;5056800;28;20904;-69
2022/01/15 11:10:11;;;;;;;29.00;18.97;;;;;;;;;;5073163;28;20960;-69
2022/01/15 11:12:38;;;;;;;25.57;17.90;;;;;;;;;;5063145;28;20902;-69
2022/01/15 11:15:04;;;;;;;25.33;16.00;;;;;;;;;;5056162;28;20429;-69
2022/01/15 11:17:30;;;;;;;22.03;12.70;;;;;;;;;;5056994;28;20432;-69
2022/01/15 11:19:56;;;;;;;20.40;14.50;;;;;;;;;;5056921;28;20420;-69
2022/01/15 11:22:22;;;;;;;22.90;13.27;;;;;;;;;;5056604;28;20453;-70
2022/01/15 11:24:49;;;;;;;20.43;13.27;;;;;;;;;;5056645;28;20489;-69
2022/01/15 11:27:16;;;;;;;23.63;14.10;;;;;;;;;;5044034;22;20491;-53
2022/01/15 11:29:43;;;;;;;20.20;13.73;;;;;;;;;;5016465;28;20460;-55
2022/01/15 11:32:12;;;;;;;21.53;14.00;;;;;;;;;;5016297;28;20931;-49
2022/01/15 11:34:39;;;;;;;27.03;13.80;;;;;;;;;;5015492;28;20756;-50
2022/01/15 11:37:23;;;;;;;23.93;13.50;;;;;;;;;;5016037;28;20427;-47
2022/01/15 11:39:52;;;;;;;20.23;13.20;;;;;;;;;;4997028;28;20385;-51
2022/01/15 11:42:28;;;;;;;21.93;12.77;;;;;;;;;;5011660;28;20458;-52
2022/01/15 11:44:55;;;;;;;23.20;12.47;;;;;;;;;;5015885;28;20408;-50
2022/01/15 11:47:22;;;;;;;25.80;14.83;;;;;;;;;;5015525;28;20431;-50
2022/01/15 11:49:49;;;;;;;21.90;13.00;;;;;;;;;;5015833;28;20466;-49
2022/01/15 11:52:17;;;;;;;24.10;14.80;;;;;;;;;;5016361;28;20928;-54
2022/01/15 11:54:52;;;;;;;23.37;14.33;;;;;;;;;;5016100;28;20419;-51
2022/01/15 11:57:27;;;;;;;23.47;13.40;;;;;;;;;;4996549;28;20821;-52
2022/01/15 11:59:54;;;;;;;21.43;13.30;;;;;;;;;;5011152;28;20773;-50
2022/01/15 12:02:29;;;;;;;26.40;15.13;;;;;;;;;;5016089;28;20524;-49
2022/01/15 12:04:55;;;;;;;22.00;13.10;;;;;;;;;;5016027;28;20438;-52
2022/01/15 12:07:23;;;;;;;23.47;13.37;;;;;;;;;;5015627;28;20427;-54
2022/01/15 12:09:49;;;;;;;27.97;13.80;;;;;;;;;;5015787;28;20412;-51
2022/01/15 12:12:19;;;;;;;20.97;12.80;;;;;;;;;;5015639;28;20471;-50
2022/01/15 12:14:52;;;;;;;24.63;15.13;;;;;;;;;;5015763;28;20423;-51
2022/01/15 12:17:51;;;;;;;23.77;14.63;;;;;;;;;;5015058;28;20523;-54
2022/01/15 12:20:17;;;;;;;25.03;14.90;;;;;;;;;;4974018;28;20943;-54
2022/01/15 12:22:50;;;;;;;24.50;16.08;;;;;;;;;;5013395;28;20438;-68
2022/01/15 12:25:16;;;;;;;23.45;15.63;;;;;;;;;;5014955;28;20494;-71
2022/01/15 12:27:42;;;;;;;24.88;15.27;;;;;;;;;;5014964;28;20521;-61
2022/01/15 12:30:11;;;;;;;25.30;15.77;;;;;;;;;;5014981;28;20185;-60
2022/01/15 12:32:40;;;;;;;25.73;14.90;;;;;;;;;;5014334;28;20999;-61
2022/01/15 12:35:13;;;;;;;26.50;15.30;;;;;;;;;;5014320;28;20856;-60
2022/01/15 12:37:50;;;;;;;31.60;15.40;;;;;;;;;;5016014;28;20415;-58
2022/01/15 12:40:16;;;;;;;29.90;17.43;;;;;;;;;;5015461;28;20462;-58
2022/01/15 12:42:42;;;;;;;26.93;15.17;;;;;;;;;;5015573;28;20447;-59
2022/01/15 12:45:17;;;;;;;27.90;15.70;;;;;;;;;;5014420;28;20418;-58
2022/01/15 12:47:45;;;;;;;25.53;16.07;;;;;;;;;;5015097;28;20959;-59
2022/01/15 12:50:11;;;;;;;24.00;14.83;;;;;;;;;;5015449;28;20404;-58
2022/01/15 12:52:37;;;;;;;25.43;15.13;;;;;;;;;;5015430;28;20427;-59
2022/01/15 12:55:03;;;;;;;24.13;13.60;;;;;;;;;;5014784;28;20908;-60
2022/01/15 12:57:38;;;;;;;25.47;14.23;;;;;;;;;;5014722;28;20981;-57
2022/01/15 13:00:06;;;;;;;24.90;13.70;;;;;;;;;;5014879;28;20424;-57
2022/01/15 13:02:32;;;;;;;19.03;13.20;;;;;;;;;;5015398;28;20864;-64
2022/01/15 13:04:58;;;;;;;20.93;13.30;;;;;;;;;;5014365;28;20434;-52
2022/01/15 13:07:24;;;;;;;29.60;15.90;;;;;;;;;;5014720;28;20439;-54
2022/01/15 13:09:50;;;;;;;25.50;13.87;;;;;;;;;;5013403;28;20415;-54
2022/01/15 13:12:16;;;;;;;25.20;14.80;;;;;;;;;;5013149;28;20415;-55
2022/01/15 13:14:43;;;;;;;30.07;13.53;;;;;;;;;;5014189;28;20177;-63
2022/01/15 13:17:25;;;;;;;26.10;14.37;;;;;;;;;;5014874;28;20489;-53
2022/01/15 13:19:52;;;;;;;26.67;15.47;;;;;;;;;;5015100;28;20403;-56
2022/01/15 13:22:22;;;;;;;29.53;15.07;;;;;;;;;;5015160;28;20435;-55
2022/01/15 13:24:48;;;;;;;25.83;15.50;;;;;;;;;;5015087;28;20411;-56
2022/01/15 13:27:20;;;;;;;25.00;14.23;;;;;;;;;;5014725;28;20867;-55
2022/01/15 13:29:46;;;;;;;25.90;12.80;;;;;;;;;;5015001;28;20890;-52
2022/01/15 13:32:12;;;;;;;24.17;15.37;;;;;;;;;;5015132;28;20415;-55
2022/01/15 13:34:39;;;;;;;25.37;14.30;;;;;;;;;;5014962;28;20483;-53
2022/01/15 13:37:07;;;;;;;43.63;16.90;;;;;;;;;;5013875;28;20519;-54
2022/01/15 13:39:34;;;;;;;27.20;14.30;;;;;;;;;;5014641;28;20820;-52
2022/01/15 13:42:00;;;;;;;29.30;15.27;;;;;;;;;;5014375;28;20454;-56
2022/01/15 13:44:31;;;;;;;33.10;14.60;;;;;;;;;;5014246;28;20401;-54
2022/01/15 13:47:06;;;;;;;26.83;14.43;;;;;;;;;;5014066;28;20434;-56
2022/01/15 13:55:11;;;;;;;27.10;14.23;;;;;;;;;;5010811;28;20454;-56
2022/01/15 13:57:40;;;;;;;25.03;14.53;;;;;;;;;;5014149;28;20399;-53
2022/01/15 14:00:16;;;;;;;28.87;15.53;;;;;;;;;;5013367;28;20423;-54
2022/01/15 14:02:44;;;;;;;30.83;14.90;;;;;;;;;;5012918;28;20487;-56
2022/01/15 14:05:14;;;;;;;27.53;13.80;;;;;;;;;;5013147;28;20890;-53
2022/01/15 14:07:40;;;;;;;26.30;14.47;;;;;;;;;;5014239;28;20416;-55
2022/01/15 14:10:11;;;;;;;26.53;14.37;;;;;;;;;;5012651;28;20422;-56
2022/01/15 14:12:37;;;;;;;25.83;15.13;;;;;;;;;;5013611;28;20550;-57
2022/01/15 14:15:04;;;;;;;29.43;15.00;;;;;;;;;;5013853;28;20420;-54
2022/01/15 14:17:31;;;;;;;28.83;17.20;;;;;;;;;;5013783;28;20439;-55
2022/01/15 14:22:27;;;;;;;28.73;16.47;;;;;;;;;;5012707;28;20447;-54
2022/01/15 14:24:54;;;;;;;27.17;15.67;;;;;;;;;;5013837;28;20439;-55
2022/01/15 14:27:22;;;;;;;24.60;13.30;;;;;;;;;;5012842;28;20451;-54
2022/01/15 14:29:52;;;;;;;28.43;16.43;;;;;;;;;;5013883;28;20425;-64
2022/01/15 14:32:18;;;;;;;28.60;16.73;;;;;;;;;;5012822;28;20419;-53
2022/01/15 14:34:50;;;;;;;26.30;14.73;;;;;;;;;;5011948;28;20412;-52
2022/01/15 14:37:16;;;;;;;21.73;13.33;;;;;;;;;;5013464;28;20439;-57
2022/01/15 14:39:42;;;;;;;24.03;14.60;;;;;;;;;;5013432;28;20418;-52
2022/01/15 14:42:08;;;;;;;33.50;14.43;;;;;;;;;;5011911;28;20442;-53
2022/01/15 14:44:34;;;;;;;22.87;13.50;;;;;;;;;;5012720;28;20489;-55
2022/01/15 14:47:00;;;;;;;27.00;14.93;;;;;;;;;;5013604;28;20460;-60
2022/01/15 14:49:26;;;;;;;24.33;14.80;;;;;;;;;;5013841;28;20418;-67
2022/01/15 14:51:53;;;;;;;31.33;16.63;;;;;;;;;;5013382;28;20407;-61
2022/01/15 14:54:19;;;;;;;24.10;13.93;;;;;;;;;;5013714;28;20400;-59
2022/01/15 14:56:45;;;;;;;28.70;16.10;;;;;;;;;;5013209;28;20425;-60
2022/01/15 14:59:11;;;;;;;29.57;15.60;;;;;;;;;;5013275;28;20415;-60
2022/01/15 15:01:37;;;;;;;34.17;17.07;;;;;;;;;;5012855;28;20454;-56